sensor_id;sensor_type;location;lat;lon;timestamp;pressure;altitude;pressure_sealevel;temperature
24586;BMP280;12743;52.262;6.172;2022-10-31T00:01:30;101589.19;;;13.12
24586;BMP280;12743;52.262;6.172;2022-10-31T00:03:55;101593.63;;;13.20
24586;BMP280;12743;52.262;6.172;2022-10-31T00:06:21;101595.16;;;13.21
24586;BMP280;12743;52.262;6.172;2022-10-31T00:08:52;101580.44;;;13.20
24586;BMP280;12743;52.262;6.172;2022-10-31T00:11:18;101593.63;;;13.20
24586;BMP280;12743;52.262;6.172;2022-10-31T00:13:43;101578.69;;;12.94
24586;BMP280;12743;52.262;6.172;2022-10-31T00:16:16;101589.97;;;13.12
24586;BMP280;12743;52.262;6.172;2022-10-31T00:18:41;101583.91;;;13.12
24586;BMP280;12743;52.262;6.172;2022-10-31T00:21:07;101582.34;;;13.11
24586;BMP280;12743;52.262;6.172;2022-10-31T00:23:32;101568.63;;;12.97
24586;BMP280;12743;52.262;6.172;2022-10-31T00:26:02;101584.31;;;12.93
24586;BMP280;12743;52.262;6.172;2022-10-31T00:28:29;101583.09;;;12.90
24586;BMP280;12743;52.262;6.172;2022-10-31T00:30:58;101591.47;;;12.84
24586;BMP280;12743;52.262;6.172;2022-10-31T00:33:24;101582.91;;;12.95
24586;BMP280;12743;52.262;6.172;2022-10-31T00:35:50;101595.75;;;13.06
24586;BMP280;12743;52.262;6.172;2022-10-31T00:38:16;101578.50;;;12.79
24586;BMP280;12743;52.262;6.172;2022-10-31T00:40:41;101585.44;;;12.83
24586;BMP280;12743;52.262;6.172;2022-10-31T00:43:06;101578.66;;;12.74
24586;BMP280;12743;52.262;6.172;2022-10-31T00:45:32;101586.25;;;12.75
24586;BMP280;12743;52.262;6.172;2022-10-31T00:47:57;101587.19;;;12.71
24586;BMP280;12743;52.262;6.172;2022-10-31T00:50:23;101591.69;;;12.79
24586;BMP280;12743;52.262;6.172;2022-10-31T00:52:48;101585.25;;;12.88
24586;BMP280;12743;52.262;6.172;2022-10-31T00:55:13;101576.97;;;12.69
24586;BMP280;12743;52.262;6.172;2022-10-31T00:57:39;101584.84;;;12.78
24586;BMP280;12743;52.262;6.172;2022-10-31T01:00:05;101589.53;;;12.72
24586;BMP280;12743;52.262;6.172;2022-10-31T01:02:31;101596.50;;;12.77
24586;BMP280;12743;52.262;6.172;2022-10-31T01:04:56;101601.78;;;12.77
24586;BMP280;12743;52.262;6.172;2022-10-31T01:07:21;101604.41;;;12.77
24586;BMP280;12743;52.262;6.172;2022-10-31T01:09:47;101604.41;;;12.77
24586;BMP280;12743;52.262;6.172;2022-10-31T01:12:12;101605.44;;;12.84
24586;BMP280;12743;52.262;6.172;2022-10-31T01:14:42;101609.75;;;12.89
24586;BMP280;12743;52.262;6.172;2022-10-31T01:17:08;101598.00;;;12.86
24586;BMP280;12743;52.262;6.172;2022-10-31T01:19:33;101613.69;;;12.83
24586;BMP280;12743;52.262;6.172;2022-10-31T01:21:58;101606.06;;;12.81
24586;BMP280;12743;52.262;6.172;2022-10-31T01:24:28;101613.81;;;12.86
24586;BMP280;12743;52.262;6.172;2022-10-31T01:26:53;101614.59;;;12.87
24586;BMP280;12743;52.262;6.172;2022-10-31T01:29:18;101596.63;;;12.80
24586;BMP280;12743;52.262;6.172;2022-10-31T01:31:44;101603.63;;;12.76
24586;BMP280;12743;52.262;6.172;2022-10-31T01:34:15;101596.34;;;12.73
24586;BMP280;12743;52.262;6.172;2022-10-31T01:36:41;101596.78;;;12.75
24586;BMP280;12743;52.262;6.172;2022-10-31T01:39:12;101597.09;;;12.82
24586;BMP280;12743;52.262;6.172;2022-10-31T01:41:41;101600.38;;;12.79
24586;BMP280;12743;52.262;6.172;2022-10-31T01:46:57;101603.91;;;12.83
24586;BMP280;12743;52.262;6.172;2022-10-31T01:49:26;101605.03;;;12.74
24586;BMP280;12743;52.262;6.172;2022-10-31T01:51:57;101596.50;;;12.68
24586;BMP280;12743;52.262;6.172;2022-10-31T01:54:29;101596.66;;;12.72
24586;BMP280;12743;52.262;6.172;2022-10-31T01:56:56;101596.50;;;12.77
24586;BMP280;12743;52.262;6.172;2022-10-31T01:59:24;101598.97;;;12.73
24586;BMP280;12743;52.262;6.172;2022-10-31T02:01:51;101596.50;;;12.77
24586;BMP280;12743;52.262;6.172;2022-10-31T02:04:18;101592.25;;;12.84
24586;BMP280;12743;52.262;6.172;2022-10-31T02:06:53;101599.88;;;12.77
24586;BMP280;12743;52.262;6.172;2022-10-31T02:09:20;101599.75;;;12.74
24586;BMP280;12743;52.262;6.172;2022-10-31T02:11:51;101583.38;;;12.60
24586;BMP280;12743;52.262;6.172;2022-10-31T02:14:17;101600.13;;;12.64
24586;BMP280;12743;52.262;6.172;2022-10-31T02:16:44;101594.69;;;12.60
24586;BMP280;12743;52.262;6.172;2022-10-31T02:19:12;101576.41;;;12.55
24586;BMP280;12743;52.262;6.172;2022-10-31T02:21:46;101591.22;;;12.68
24586;BMP280;12743;52.262;6.172;2022-10-31T02:27:11;101593.63;;;12.53
24586;BMP280;12743;52.262;6.172;2022-10-31T02:29:53;101593.00;;;12.56
24586;BMP280;12743;52.262;6.172;2022-10-31T02:43:31;101603.09;;;12.45
24586;BMP280;12743;52.262;6.172;2022-10-31T02:46:08;101607.44;;;12.41
24586;BMP280;12743;52.262;6.172;2022-10-31T02:48:39;101605.28;;;12.35
24586;BMP280;12743;52.262;6.172;2022-10-31T02:51:08;101591.81;;;12.36
24586;BMP280;12743;52.262;6.172;2022-10-31T02:53:36;101601.88;;;12.43
24586;BMP280;12743;52.262;6.172;2022-10-31T02:58:37;101573.25;;;12.15
24586;BMP280;12743;52.262;6.172;2022-10-31T03:02:05;101548.81;;;11.98
24586;BMP280;12743;52.262;6.172;2022-10-31T03:04:21;101579.59;;;12.06
24586;BMP280;12743;52.262;6.172;2022-10-31T03:07:07;101587.38;;;12.11
24586;BMP280;12743;52.262;6.172;2022-10-31T03:09:51;101589.06;;;12.15
24586;BMP280;12743;52.262;6.172;2022-10-31T03:17:54;101594.31;;;12.15
24586;BMP280;12743;52.262;6.172;2022-10-31T03:20:25;101600.22;;;12.12
24586;BMP280;12743;52.262;6.172;2022-10-31T03:22:52;101589.38;;;12.05
24586;BMP280;12743;52.262;6.172;2022-10-31T03:25:20;101578.53;;;11.98
24586;BMP280;12743;52.262;6.172;2022-10-31T03:27:46;101595.28;;;12.02
24586;BMP280;12743;52.262;6.172;2022-10-31T03:30:13;101596.81;;;11.95
24586;BMP280;12743;52.262;6.172;2022-10-31T03:32:55;101597.75;;;11.90
24586;BMP280;12743;52.262;6.172;2022-10-31T03:35:24;101596.53;;;11.88
24586;BMP280;12743;52.262;6.172;2022-10-31T03:37:52;101598.69;;;11.94
24586;BMP280;12743;52.262;6.172;2022-10-31T03:40:20;101581.97;;;11.82
24586;BMP280;12743;52.262;6.172;2022-10-31T03:42:52;101583.38;;;11.88
24586;BMP280;12743;52.262;6.172;2022-10-31T03:45:25;101587.53;;;11.80
24586;BMP280;12743;52.262;6.172;2022-10-31T03:47:53;101581.97;;;11.82
24586;BMP280;12743;52.262;6.172;2022-10-31T03:50:20;101589.41;;;11.80
24586;BMP280;12743;52.262;6.172;2022-10-31T03:53:05;101563.69;;;11.51
24586;BMP280;12743;52.262;6.172;2022-10-31T03:55:48;101586.91;;;11.66
24586;BMP280;12743;52.262;6.172;2022-10-31T03:58:24;101575.91;;;11.56
24586;BMP280;12743;52.262;6.172;2022-10-31T04:00:54;101591.22;;;11.54
24586;BMP280;12743;52.262;6.172;2022-10-31T04:03:26;101587.66;;;11.41
24586;BMP280;12743;52.262;6.172;2022-10-31T04:05:56;101570.28;;;11.31
24586;BMP280;12743;52.262;6.172;2022-10-31T04:08:27;101595.41;;;11.55
24586;BMP280;12743;52.262;6.172;2022-10-31T04:10:55;101591.34;;;11.48
24586;BMP280;12743;52.262;6.172;2022-10-31T04:13:30;101585.19;;;11.44
24586;BMP280;12743;52.262;6.172;2022-10-31T04:16:01;101598.69;;;11.60
24586;BMP280;12743;52.262;6.172;2022-10-31T04:18:27;101592.78;;;11.55
24586;BMP280;12743;52.262;6.172;2022-10-31T04:21:01;101608.09;;;11.53
24586;BMP280;12743;52.262;6.172;2022-10-31T04:23:28;101593.69;;;11.50
24586;BMP280;12743;52.262;6.172;2022-10-31T04:25:54;101598.50;;;11.48
24586;BMP280;12743;52.262;6.172;2022-10-31T04:28:19;101590.59;;;11.31
24586;BMP280;12743;52.262;6.172;2022-10-31T04:30:44;101597.06;;;11.25
24586;BMP280;12743;52.262;6.172;2022-10-31T04:33:10;101596.06;;;11.12
24586;BMP280;12743;52.262;6.172;2022-10-31T04:35:36;101594.72;;;11.15
24586;BMP280;12743;52.262;6.172;2022-10-31T04:38:02;101590.69;;;11.17
24586;BMP280;12743;52.262;6.172;2022-10-31T04:40:28;101573.00;;;11.09
24586;BMP280;12743;52.262;6.172;2022-10-31T04:43:13;101598.91;;;11.33
24586;BMP280;12743;52.262;6.172;2022-10-31T04:45:41;101599.59;;;11.38
24586;BMP280;12743;52.262;6.172;2022-10-31T04:48:08;101586.41;;;11.30
24586;BMP280;12743;52.262;6.172;2022-10-31T04:50:35;101596.00;;;11.34
24586;BMP280;12743;52.262;6.172;2022-10-31T04:53:00;101583.69;;;11.04
24586;BMP280;12743;52.262;6.172;2022-10-31T04:55:30;101610.44;;;11.06
24586;BMP280;12743;52.262;6.172;2022-10-31T04:58:17;101589.72;;;11.05
24586;BMP280;12743;52.262;6.172;2022-10-31T05:00:43;101604.19;;;10.94
24586;BMP280;12743;52.262;6.172;2022-10-31T05:03:09;101599.38;;;10.87
24586;BMP280;12743;52.262;6.172;2022-10-31T05:05:34;101594.66;;;10.98
24586;BMP280;12743;52.262;6.172;2022-10-31T05:08:02;101576.41;;;11.01
24586;BMP280;12743;52.262;6.172;2022-10-31T05:10:30;101586.94;;;11.10
24586;BMP280;12743;52.262;6.172;2022-10-31T05:13:00;101568.88;;;11.08
24586;BMP280;12743;52.262;6.172;2022-10-31T05:15:38;101560.47;;;10.98
24586;BMP280;12743;52.262;6.172;2022-10-31T05:18:26;101575.63;;;10.92
24586;BMP280;12743;52.262;6.172;2022-10-31T05:21:12;101568.19;;;10.94
24586;BMP280;12743;52.262;6.172;2022-10-31T05:23:43;101561.06;;;10.95
24586;BMP280;12743;52.262;6.172;2022-10-31T05:26:08;101560.63;;;11.01
24586;BMP280;12743;52.262;6.172;2022-10-31T05:28:34;101568.19;;;11.03
24586;BMP280;12743;52.262;6.172;2022-10-31T05:31:00;101563.44;;;11.05
24586;BMP280;12743;52.262;6.172;2022-10-31T05:33:25;101563.06;;;10.89
24586;BMP280;12743;52.262;6.172;2022-10-31T05:36:09;101554.53;;;10.75
24586;BMP280;12743;52.262;6.172;2022-10-31T05:38:51;101561.84;;;10.95
24586;BMP280;12743;52.262;6.172;2022-10-31T05:41:23;101570.03;;;11.02
24586;BMP280;12743;52.262;6.172;2022-10-31T05:43:50;101568.03;;;10.99
24586;BMP280;12743;52.262;6.172;2022-10-31T05:46:19;101568.50;;;11.01
24586;BMP280;12743;52.262;6.172;2022-10-31T05:49:03;101567.88;;;10.96
24586;BMP280;12743;52.262;6.172;2022-10-31T05:51:46;101559.53;;;10.85
24586;BMP280;12743;52.262;6.172;2022-10-31T05:54:12;101561.31;;;10.76
24586;BMP280;12743;52.262;6.172;2022-10-31T05:56:39;101561.44;;;10.71
24586;BMP280;12743;52.262;6.172;2022-10-31T05:59:04;101550.50;;;10.69
24586;BMP280;12743;52.262;6.172;2022-10-31T06:01:30;101556.09;;;10.85
24586;BMP280;12743;52.262;6.172;2022-10-31T06:03:59;101559.97;;;10.87
24586;BMP280;12743;52.262;6.172;2022-10-31T06:06:25;101572.66;;;10.94
24586;BMP280;12743;52.262;6.172;2022-10-31T06:08:51;101562.75;;;10.91
24586;BMP280;12743;52.262;6.172;2022-10-31T06:11:19;101565.06;;;10.84
24586;BMP280;12743;52.262;6.172;2022-10-31T06:14:03;101563.06;;;10.89
24586;BMP280;12743;52.262;6.172;2022-10-31T06:16:44;101572.31;;;10.87
24586;BMP280;12743;52.262;6.172;2022-10-31T06:19:33;101574.16;;;10.77
24586;BMP280;12743;52.262;6.172;2022-10-31T06:21:58;101571.06;;;10.75
24586;BMP280;12743;52.262;6.172;2022-10-31T06:24:24;101569.34;;;10.79
24586;BMP280;12743;52.262;6.172;2022-10-31T06:26:52;101567.47;;;10.71
24586;BMP280;12743;52.262;6.172;2022-10-31T06:29:17;101566.34;;;10.64
24586;BMP280;12743;52.262;6.172;2022-10-31T06:32:13;101563.56;;;10.60
24586;BMP280;12743;52.262;6.172;2022-10-31T06:34:42;101567.41;;;10.63
24586;BMP280;12743;52.262;6.172;2022-10-31T06:37:10;101573.78;;;10.70
24586;BMP280;12743;52.262;6.172;2022-10-31T06:39:37;101569.75;;;10.64
24586;BMP280;12743;52.262;6.172;2022-10-31T06:42:03;101571.59;;;10.64
24586;BMP280;12743;52.262;6.172;2022-10-31T06:44:30;101567.13;;;10.64
24586;BMP280;12743;52.262;6.172;2022-10-31T06:46:59;101575.03;;;10.73
24586;BMP280;12743;52.262;6.172;2022-10-31T06:49:47;101566.97;;;10.61
24586;BMP280;12743;52.262;6.172;2022-10-31T06:52:15;101571.59;;;10.64
24586;BMP280;12743;52.262;6.172;2022-10-31T06:54:41;101585.38;;;10.69
24586;BMP280;12743;52.262;6.172;2022-10-31T06:57:07;101569.28;;;10.62
24586;BMP280;12743;52.262;6.172;2022-10-31T06:59:32;101583.09;;;10.68
24586;BMP280;12743;52.262;6.172;2022-10-31T07:02:15;101581.63;;;10.62
24586;BMP280;12743;52.262;6.172;2022-10-31T07:04:42;101554.22;;;10.46
24586;BMP280;12743;52.262;6.172;2022-10-31T07:07:10;101563.81;;;10.50
24586;BMP280;12743;52.262;6.172;2022-10-31T07:09:36;101587.56;;;10.67
24586;BMP280;12743;52.262;6.172;2022-10-31T07:12:03;101567.50;;;10.49
24586;BMP280;12743;52.262;6.172;2022-10-31T07:14:31;101596.81;;;10.65
24586;BMP280;12743;52.262;6.172;2022-10-31T07:16:56;101591.56;;;10.65
24586;BMP280;12743;52.262;6.172;2022-10-31T07:19:29;101595.72;;;10.66
24586;BMP280;12743;52.262;6.172;2022-10-31T07:21:56;101609.97;;;10.73
24586;BMP280;12743;52.262;6.172;2022-10-31T07:24:25;101604.13;;;10.76
24586;BMP280;12743;52.262;6.172;2022-10-31T07:27:09;101595.47;;;10.76
24586;BMP280;12743;52.262;6.172;2022-10-31T07:29:34;101593.97;;;10.84
24586;BMP280;12743;52.262;6.172;2022-10-31T07:32:00;101568.88;;;10.69
24586;BMP280;12743;52.262;6.172;2022-10-31T07:34:27;101592.56;;;10.86
24586;BMP280;12743;52.262;6.172;2022-10-31T07:37:12;101591.81;;;10.86
24586;BMP280;12743;52.262;6.172;2022-10-31T07:39:38;101583.00;;;10.82
24586;BMP280;12743;52.262;6.172;2022-10-31T07:42:05;101589.97;;;10.95
24586;BMP280;12743;52.262;6.172;2022-10-31T07:44:32;101587.03;;;10.96
24586;BMP280;12743;52.262;6.172;2022-10-31T07:47:16;101601.75;;;10.97
24586;BMP280;12743;52.262;6.172;2022-10-31T07:50:00;101577.75;;;10.90
24586;BMP280;12743;52.262;6.172;2022-10-31T07:52:44;101584.75;;;11.03
24586;BMP280;12743;52.262;6.172;2022-10-31T07:55:29;101586.50;;;11.08
24586;BMP280;12743;52.262;6.172;2022-10-31T07:58:11;101584.94;;;11.07
24586;BMP280;12743;52.262;6.172;2022-10-31T08:00:40;101590.63;;;11.09
24586;BMP280;12743;52.262;6.172;2022-10-31T08:03:13;101583.56;;;11.18
24586;BMP280;12743;52.262;6.172;2022-10-31T08:05:59;101581.28;;;11.25
24586;BMP280;12743;52.262;6.172;2022-10-31T08:08:43;101549.69;;;11.08
24586;BMP280;12743;52.262;6.172;2022-10-31T08:11:08;101586.06;;;11.31
24586;BMP280;12743;52.262;6.172;2022-10-31T08:13:34;101583.63;;;11.35
24586;BMP280;12743;52.262;6.172;2022-10-31T08:16:00;101585.66;;;11.38
24586;BMP280;12743;52.262;6.172;2022-10-31T08:18:30;101598.13;;;11.32
24586;BMP280;12743;52.262;6.172;2022-10-31T08:20:56;101583.44;;;11.23
24586;BMP280;12743;52.262;6.172;2022-10-31T08:23:22;101590.41;;;11.27
24586;BMP280;12743;52.262;6.172;2022-10-31T08:25:48;101597.84;;;11.42
24586;BMP280;12743;52.262;6.172;2022-10-31T08:28:14;101595.41;;;11.46
24586;BMP280;12743;52.262;6.172;2022-10-31T08:30:41;101592.91;;;11.49
24586;BMP280;12743;52.262;6.172;2022-10-31T08:33:45;101600.22;;;11.70
24586;BMP280;12743;52.262;6.172;2022-10-31T08:36:29;101605.19;;;11.80
24586;BMP280;12743;52.262;6.172;2022-10-31T08:39:11;101598.53;;;11.91
24586;BMP280;12743;52.262;6.172;2022-10-31T08:41:38;101597.13;;;11.85
24586;BMP280;12743;52.262;6.172;2022-10-31T08:44:08;101599.00;;;11.84
24586;BMP280;12743;52.262;6.172;2022-10-31T08:46:34;101597.75;;;11.82
24586;BMP280;12743;52.262;6.172;2022-10-31T08:49:01;101595.59;;;11.75
24586;BMP280;12743;52.262;6.172;2022-10-31T08:51:27;101593.41;;;11.77
24586;BMP280;12743;52.262;6.172;2022-10-31T08:53:54;101580.41;;;11.64
24586;BMP280;12743;52.262;6.172;2022-10-31T08:56:40;101590.94;;;11.81
24586;BMP280;12743;52.262;6.172;2022-10-31T08:59:20;101584.13;;;11.80
24586;BMP280;12743;52.262;6.172;2022-10-31T09:02:07;101563.06;;;11.80
24586;BMP280;12743;52.262;6.172;2022-10-31T09:04:33;101571.59;;;11.94
24586;BMP280;12743;52.262;6.172;2022-10-31T09:06:59;101583.97;;;12.10
24586;BMP280;12743;52.262;6.172;2022-10-31T09:09:25;101561.50;;;12.04
24586;BMP280;12743;52.262;6.172;2022-10-31T09:11:50;101573.56;;;12.14
24586;BMP280;12743;52.262;6.172;2022-10-31T09:14:53;101569.09;;;12.14
24586;BMP280;12743;52.262;6.172;2022-10-31T09:17:24;101562.25;;;12.13
24586;BMP280;12743;52.262;6.172;2022-10-31T09:20:14;101577.25;;;12.39
24586;BMP280;12743;52.262;6.172;2022-10-31T09:22:39;101578.28;;;12.46
24586;BMP280;12743;52.262;6.172;2022-10-31T09:25:06;101563.59;;;12.45
24586;BMP280;12743;52.262;6.172;2022-10-31T09:27:31;101579.16;;;12.67
24586;BMP280;12743;52.262;6.172;2022-10-31T09:29:57;101569.06;;;12.69
24586;BMP280;12743;52.262;6.172;2022-10-31T09:32:23;101568.13;;;12.74
24586;BMP280;12743;52.262;6.172;2022-10-31T09:34:49;101566.09;;;12.79
24586;BMP280;12743;52.262;6.172;2022-10-31T09:37:18;101568.34;;;12.89
24586;BMP280;12743;52.262;6.172;2022-10-31T09:39:44;101547.75;;;12.83
24586;BMP280;12743;52.262;6.172;2022-10-31T09:45:18;101560.44;;;13.19
24586;BMP280;12743;52.262;6.172;2022-10-31T09:50:38;101553.69;;;13.30
24586;BMP280;12743;52.262;6.172;2022-10-31T09:54:00;101566.94;;;13.42
24586;BMP280;12743;52.262;6.172;2022-10-31T09:56:31;101565.25;;;13.58
24586;BMP280;12743;52.262;6.172;2022-10-31T09:59:00;101529.25;;;13.53
24586;BMP280;12743;52.262;6.172;2022-10-31T10:07:11;101537.00;;;13.91
24586;BMP280;12743;52.262;6.172;2022-10-31T10:09:44;101507.94;;;13.91
24586;BMP280;12743;52.262;6.172;2022-10-31T10:13:05;101504.09;;;14.01
24586;BMP280;12743;52.262;6.172;2022-10-31T10:29:58;101508.22;;;14.46
24586;BMP280;12743;52.262;6.172;2022-10-31T10:32:29;101500.06;;;14.52
24586;BMP280;12743;52.262;6.172;2022-10-31T10:34:59;101524.28;;;14.66
24586;BMP280;12743;52.262;6.172;2022-10-31T10:37:31;101509.28;;;14.70
24586;BMP280;12743;52.262;6.172;2022-10-31T10:40:12;101516.34;;;14.66
24586;BMP280;12743;52.262;6.172;2022-10-31T10:42:39;101510.63;;;14.64
24586;BMP280;12743;52.262;6.172;2022-10-31T10:45:24;101508.84;;;14.68
24586;BMP280;12743;52.262;6.172;2022-10-31T10:48:16;101513.81;;;14.69
24586;BMP280;12743;52.262;6.172;2022-10-31T10:50:48;101503.44;;;14.76
24586;BMP280;12743;52.262;6.172;2022-10-31T10:53:44;101501.69;;;14.80
24586;BMP280;12743;52.262;6.172;2022-10-31T10:56:38;101474.22;;;14.73
24586;BMP280;12743;52.262;6.172;2022-10-31T10:59:04;101490.47;;;14.71
24586;BMP280;12743;52.262;6.172;2022-10-31T11:01:29;101473.19;;;14.62
24586;BMP280;12743;52.262;6.172;2022-10-31T11:03:54;101484.06;;;14.72
24586;BMP280;12743;52.262;6.172;2022-10-31T11:06:22;101492.09;;;14.76
24586;BMP280;12743;52.262;6.172;2022-10-31T11:08:52;101497.16;;;14.81
24586;BMP280;12743;52.262;6.172;2022-10-31T11:13:46;101452.16;;;14.65
24586;BMP280;12743;52.262;6.172;2022-10-31T11:16:15;101470.28;;;14.79
24586;BMP280;12743;52.262;6.172;2022-10-31T11:18:52;101451.50;;;14.84
24586;BMP280;12743;52.262;6.172;2022-10-31T11:21:28;101453.84;;;14.85
24586;BMP280;12743;52.262;6.172;2022-10-31T11:24:04;101442.69;;;14.92
24586;BMP280;12743;52.262;6.172;2022-10-31T11:26:29;101419.31;;;14.94
24586;BMP280;12743;52.262;6.172;2022-10-31T11:28:58;101404.91;;;15.07
24586;BMP280;12743;52.262;6.172;2022-10-31T11:31:25;101406.31;;;15.16
24586;BMP280;12743;52.262;6.172;2022-10-31T11:33:57;101423.34;;;15.31
24586;BMP280;12743;52.262;6.172;2022-10-31T11:36:25;101422.22;;;15.32
24586;BMP280;12743;52.262;6.172;2022-10-31T11:38:53;101408.97;;;15.32
24586;BMP280;12743;52.262;6.172;2022-10-31T11:41:39;101406.53;;;15.39
24586;BMP280;12743;52.262;6.172;2022-10-31T11:44:23;101398.84;;;15.50
24586;BMP280;12743;52.262;6.172;2022-10-31T11:46:52;101382.59;;;15.51
24586;BMP280;12743;52.262;6.172;2022-10-31T11:49:25;101364.06;;;15.51
24586;BMP280;12743;52.262;6.172;2022-10-31T11:51:55;101366.63;;;15.63
24586;BMP280;12743;52.262;6.172;2022-10-31T11:54:28;101330.78;;;15.50
24586;BMP280;12743;52.262;6.172;2022-10-31T11:56:54;101334.28;;;15.54
24586;BMP280;12743;52.262;6.172;2022-10-31T12:01:53;101347.06;;;15.68
24586;BMP280;12743;52.262;6.172;2022-10-31T12:04:27;101343.66;;;15.67
24586;BMP280;12743;52.262;6.172;2022-10-31T12:06:54;101331.28;;;15.56
24586;BMP280;12743;52.262;6.172;2022-10-31T12:09:25;101323.22;;;15.52
24586;BMP280;12743;52.262;6.172;2022-10-31T12:12:08;101334.78;;;15.60
24586;BMP280;12743;52.262;6.172;2022-10-31T12:14:55;101332.63;;;15.65
24586;BMP280;12743;52.262;6.172;2022-10-31T12:17:36;101324.44;;;15.70
24586;BMP280;12743;52.262;6.172;2022-10-31T12:23:15;101321.44;;;15.72
24586;BMP280;12743;52.262;6.172;2022-10-31T12:28:43;101310.06;;;15.71
24586;BMP280;12743;52.262;6.172;2022-10-31T12:34:23;101308.56;;;15.89
24586;BMP280;12743;52.262;6.172;2022-10-31T12:37:03;101305.03;;;16.01
24586;BMP280;12743;52.262;6.172;2022-10-31T12:39:46;101246.72;;;15.82
24586;BMP280;12743;52.262;6.172;2022-10-31T12:42:43;101285.44;;;16.25
24586;BMP280;12743;52.262;6.172;2022-10-31T12:48:30;101271.63;;;16.35
24586;BMP280;12743;52.262;6.172;2022-10-31T12:51:13;101267.38;;;16.30
24586;BMP280;12743;52.262;6.172;2022-10-31T12:59:31;101258.28;;;16.31
24586;BMP280;12743;52.262;6.172;2022-10-31T13:02:04;101254.75;;;16.24
24586;BMP280;12743;52.262;6.172;2022-10-31T13:04:50;101251.38;;;16.27
24586;BMP280;12743;52.262;6.172;2022-10-31T13:10:26;101243.03;;;16.25
24586;BMP280;12743;52.262;6.172;2022-10-31T13:12:58;101233.00;;;16.14
24586;BMP280;12743;52.262;6.172;2022-10-31T13:15:32;101218.22;;;16.13
24586;BMP280;12743;52.262;6.172;2022-10-31T13:18:04;101212.16;;;16.13
24586;BMP280;12743;52.262;6.172;2022-10-31T13:20:43;101207.22;;;16.15
24586;BMP280;12743;52.262;6.172;2022-10-31T13:23:28;101197.72;;;16.10
24586;BMP280;12743;52.262;6.172;2022-10-31T13:25:55;101194.28;;;16.10
24586;BMP280;12743;52.262;6.172;2022-10-31T13:28:31;101186.75;;;16.12
24586;BMP280;12743;52.262;6.172;2022-10-31T13:30:58;101179.81;;;16.04
24586;BMP280;12743;52.262;6.172;2022-10-31T13:33:35;101176.50;;;16.10
24586;BMP280;12743;52.262;6.172;2022-10-31T13:36:20;101167.72;;;16.06
24586;BMP280;12743;52.262;6.172;2022-10-31T13:46:41;101131.19;;;15.96
24586;BMP280;12743;52.262;6.172;2022-10-31T13:54:37;101138.91;;;16.05
24586;BMP280;12743;52.262;6.172;2022-10-31T13:57:07;101138.63;;;16.10
24586;BMP280;12743;52.262;6.172;2022-10-31T13:59:37;101124.16;;;16.04
24586;BMP280;12743;52.262;6.172;2022-10-31T14:02:16;101127.97;;;16.06
24586;BMP280;12743;52.262;6.172;2022-10-31T14:04:48;101120.75;;;16.03
24586;BMP280;12743;52.262;6.172;2022-10-31T14:07:17;101116.94;;;16.04
24586;BMP280;12743;52.262;6.172;2022-10-31T14:12:31;101104.41;;;16.01
24586;BMP280;12743;52.262;6.172;2022-10-31T14:22:39;101072.56;;;15.98
24586;BMP280;12743;52.262;6.172;2022-10-31T14:27:56;101069.63;;;16.03
24586;BMP280;12743;52.262;6.172;2022-10-31T14:30:24;101061.25;;;16.01
24586;BMP280;12743;52.262;6.172;2022-10-31T14:33:01;101071.88;;;16.04
24586;BMP280;12743;52.262;6.172;2022-10-31T14:35:43;101072.31;;;16.06
24586;BMP280;12743;52.262;6.172;2022-10-31T14:41:29;101075.75;;;16.07
24586;BMP280;12743;52.262;6.172;2022-10-31T14:50:23;101059.03;;;16.03
24586;BMP280;12743;52.262;6.172;2022-10-31T14:52:50;101054.06;;;16.01
24586;BMP280;12743;52.262;6.172;2022-10-31T14:55:17;101051.78;;;16.00
24586;BMP280;12743;52.262;6.172;2022-10-31T14:58:04;101040.69;;;15.94
24586;BMP280;12743;52.262;6.172;2022-10-31T15:00:32;101030.47;;;15.93
24586;BMP280;12743;52.262;6.172;2022-10-31T15:03:01;101025.88;;;15.90
24586;BMP280;12743;52.262;6.172;2022-10-31T15:05:28;101007.16;;;15.79
24586;BMP280;12743;52.262;6.172;2022-10-31T15:07:56;101014.81;;;15.84
24586;BMP280;12743;52.262;6.172;2022-10-31T15:12:52;101008.69;;;15.80
24586;BMP280;12743;52.262;6.172;2022-10-31T15:15:25;101011.28;;;15.77
24586;BMP280;12743;52.262;6.172;2022-10-31T15:18:01;101008.19;;;15.75
24586;BMP280;12743;52.262;6.172;2022-10-31T15:20:41;101001.31;;;15.70
24586;BMP280;12743;52.262;6.172;2022-10-31T15:23:11;100985.25;;;15.60
24586;BMP280;12743;52.262;6.172;2022-10-31T15:25:39;101000.50;;;15.66
24586;BMP280;12743;52.262;6.172;2022-10-31T15:28:14;100986.31;;;15.55
24586;BMP280;12743;52.262;6.172;2022-10-31T15:30:52;100992.88;;;15.65
24586;BMP280;12743;52.262;6.172;2022-10-31T15:33:29;100985.16;;;15.56
24586;BMP280;12743;52.262;6.172;2022-10-31T15:35:59;100984.34;;;15.52
24586;BMP280;12743;52.262;6.172;2022-10-31T15:38:26;100988.13;;;15.51
24586;BMP280;12743;52.262;6.172;2022-10-31T15:41:01;100956.09;;;15.37
24586;BMP280;12743;52.262;6.172;2022-10-31T15:43:36;100969.81;;;15.43
24586;BMP280;12743;52.262;6.172;2022-10-31T15:46:06;100971.28;;;15.40
24586;BMP280;12743;52.262;6.172;2022-10-31T15:48:32;100968.56;;;15.37
24586;BMP280;12743;52.262;6.172;2022-10-31T15:50:59;100952.84;;;15.24
24586;BMP280;12743;52.262;6.172;2022-10-31T15:53:41;100954.50;;;15.32
24586;BMP280;12743;52.262;6.172;2022-10-31T15:56:12;100932.31;;;15.18
24586;BMP280;12743;52.262;6.172;2022-10-31T15:58:43;100947.56;;;15.24
24586;BMP280;12743;52.262;6.172;2022-10-31T16:01:30;100940.03;;;15.26
24586;BMP280;12743;52.262;6.172;2022-10-31T16:06:34;100927.75;;;15.18
24586;BMP280;12743;52.262;6.172;2022-10-31T16:08:59;100928.16;;;15.17
24586;BMP280;12743;52.262;6.172;2022-10-31T16:16:34;100934.91;;;15.14
24586;BMP280;12743;52.262;6.172;2022-10-31T16:19:05;100914.63;;;15.03
24586;BMP280;12743;52.262;6.172;2022-10-31T16:21:37;100931.47;;;15.14
24586;BMP280;12743;52.262;6.172;2022-10-31T16:24:17;100923.88;;;15.12
24586;BMP280;12743;52.262;6.172;2022-10-31T16:26:48;100914.63;;;15.03